Αρχική σελίδα
METAR-TAF:

METAR-TAF

Αεροδρόμια :

Νταρ ες Σαλάμ, Τανζανία

γεωγραφικό πλάτος: 06-52S, γεωγραφικό μήκος: 039-12E, υψόμετρο: 55 μ

Παρών καιρός

Η αναφορά έγινε 11 ώρες και 5 λεπτά πριν, στις 16:00 UTC
Άνεμος 5 kt από Ν/NA
Θερμοκρασία 25°C
Υγρασία 74%
Πίεση 1016 hPa
Ορατότητα 10 χλμ και άνω
Λίγα νέφη σε ύψος 1800 πόδια

METAR: HTDA 231600Z 16005KT 9999 FEW018 25/20 Q1016 NOSIG

Χρόνος: 06:05 (03:05 UTC)

Πρόγνωση Καιρού

Η αναφορά έγινε 4 ώρες και 5 λεπτά πριν, στις 23:00 UTC
Η πρόγνωση ισχύει από τις 23 στις 00 UTC έως τις 24 στις 06 UTC
Άνεμος kt από Β
Ορατότητα 10 χλμ και άνω
Λίγα νέφη σε ύψος 1500 πόδια

TAF: HTDA 222300Z 2300/2406 00000KT 9999 FEW015

Μετεωρολογικές αναφορές και προγνώσεις για περισσότερα από 4000 αεροδρόμια (δελτία METAR και TAF).

Οι διαθέσιμοι σταθμοί απεικονίζονται στο χάρτη με κίτρινες και κόκκινες κουκκίδες.

Μετακινήστε το ποντίκι πάνω από τις κουκκίδες για να δείτε το όνομα του σταθμού.

Στη συνέχεια, κάντε κλικ για να δείτε τις μετεωρολογικές αναφορές και τις προγνώσεις καιρού.

Για να αλλάξετε το χάρτη: κάντε κλικ στα πράσινα κουμπιά με τον μαύρο σταυρό για να ζουμάρετε, στο πράσινο κουμπί με την παύλα για να αφαιρέσετε το ζουμ ή στα πράσινα βέλη για να αντιπαραβάλλετε χάρτες.


METAR-TAF: